| time (UTC) | temp F | wind direction | speed knots | gust knots | rain 1hr in | rain 24hr in | rain mn in | humidity % | barometer mb |
| 20260502130459 | 38 | 272 | 0.9 | 2.6 | 0.00 | 0.00 | 0.00 | 90 | |
| 20260502123459 | 33 | 269 | 0.9 | 2.6 | 0.00 | 0.00 | 0.00 | 96 | |
| 20260502122858 | 33 | 271 | 0.9 | 2.6 | 0.00 | 0.00 | 0.00 | 96 | |
| 20260502122258 | 33 | 243 | 0.0 | 1.7 | 0.00 | 0.00 | 0.00 | 95 | |
| 20260502121659 | 33 | 243 | 0.0 | 1.7 | 0.00 | 0.00 | 0.00 | 95 | |
| 20260502121058 | 33 | 274 | 0.0 | 0.0 | 0.00 | 0.00 | 0.00 | 95 | |
| 20260502120459 | 33 | 274 | 0.0 | 0.0 | 0.00 | 0.00 | 0.00 | 95 | |
| 20260502115858 | 33 | 274 | 0.0 | 0.0 | 0.00 | 0.00 | 0.00 | 94 | |
| 20260502115259 | 33 | 274 | 0.0 | 0.0 | 0.00 | 0.00 | 0.00 | 94 | |
| 20260502114659 | 33 | 274 | 0.0 | 0.0 | 0.00 | 0.00 | 0.00 | 93 | |
| 20260502114058 | 34 | 274 | 0.0 | 0.0 | 0.00 | 0.00 | 0.00 | 93 | |
| 20260502113458 | 34 | 274 | 0.0 | 0.0 | 0.00 | 0.00 | 0.00 | 93 | |
| 20260502112859 | 34 | 274 | 0.0 | 0.0 | 0.00 | 0.00 | 0.00 | 92 | |
| 20260502112258 | 34 | 274 | 0.0 | 2.6 | 0.00 | 0.00 | 0.00 | 92 | |
| 20260502111658 | 34 | 274 | 0.0 | 2.6 | 0.00 | 0.00 | 0.00 | 94 | |
| 20260502111059 | 34 | 276 | 0.9 | 1.7 | 0.00 | 0.00 | 0.00 | 94 | |
| 20260502110459 | 34 | 278 | 0.0 | 1.7 | 0.00 | 0.00 | 0.00 | 94 | |
| 20260502105858 | 34 | 278 | 0.0 | 0.0 | 0.00 | 0.00 | 0.00 | 93 | |
| 20260502105258 | 34 | 278 | 0.0 | 1.7 | 0.00 | 0.00 | 0.00 | 93 | |
| 20260502104659 | 34 | 295 | 0.0 | 0.0 | 0.00 | 0.00 | 0.00 | 92 | |
| 20260502104059 | 34 | 295 | 0.0 | 0.0 | 0.00 | 0.00 | 0.00 | 92 | |
| 20260502103458 | 35 | 295 | 0.0 | 0.9 | 0.00 | 0.00 | 0.00 | 93 | |
| 20260502102858 | 35 | 295 | 0.0 | 1.7 | 0.00 | 0.00 | 0.00 | 93 | |
| 20260502102258 | 35 | 296 | 0.9 | 1.7 | 0.00 | 0.00 | 0.00 | 93 | |
| 20260502101659 | 35 | 283 | 0.9 | 0.0 | 0.00 | 0.00 | 0.00 | 93 | |
| 20260502101059 | 35 | 341 | 0.0 | 0.0 | 0.00 | 0.00 | 0.00 | 93 | |
| 20260502100459 | 36 | 341 | 0.0 | 2.6 | 0.00 | 0.00 | 0.00 | 93 | |
| 20260502091058 | 38 | 101 | 0.0 | 1.7 | 0.00 | 0.00 | 0.00 | 89 | |
| 20260502090458 | 39 | 101 | 0.9 | 0.9 | 0.00 | 0.00 | 0.00 | 88 | |
| 20260502071059 | 43 | 281 | 0.9 | 2.6 | 0.00 | 0.00 | 0.00 | 72 | |
| 20260502070458 | 44 | 279 | 0.9 | 2.6 | 0.00 | 0.00 | 0.00 | 71 | |
| 20260502065915 | 44 | 284 | 0.9 | 3.5 | 0.00 | 0.00 | 0.00 | 70 | |
| 20260502065258 | 43 | 277 | 2.6 | 3.5 | 0.00 | 0.00 | 0.00 | 74 | |
| 20260502064658 | 42 | 273 | 1.7 | 2.6 | 0.00 | 0.00 | 0.00 | 78 | |
| 20260502064059 | 42 | 274 | 1.7 | 2.6 | 0.00 | 0.00 | 0.00 | 79 | |
| 20260502063459 | 42 | 283 | 0.9 | 2.6 | 0.00 | 0.00 | 0.00 | 81 | |
| 20260502062858 | 44 | 306 | 0.9 | 0.9 | 0.00 | 0.00 | 0.00 | 77 | |
| 20260502062258 | 45 | 14 | 0.0 | 2.6 | 0.00 | 0.00 | 0.00 | 71 | |
| 20260502061058 | 45 | 18 | 1.7 | 4.3 | 0.00 | 0.00 | 0.00 | 72 | |
| 20260502060515 | 43 | 291 | 0.9 | 2.6 | 0.00 | 0.00 | 0.00 | 75 | |
| 20260502055859 | 44 | 284 | 0.9 | 2.6 | 0.00 | 0.00 | 0.00 | 74 | |
| 20260502055258 | 44 | 290 | 0.0 | 2.6 | 0.00 | 0.00 | 0.00 | 75 | |
| 20260502054658 | 44 | 283 | 0.9 | 2.6 | 0.00 | 0.00 | 0.00 | 73 | |
| 20260502054059 | 44 | 285 | 1.7 | 2.6 | 0.00 | 0.00 | 0.00 | 74 | |
| 20260502053459 | 44 | 281 | 0.9 | 3.5 | 0.00 | 0.00 | 0.00 | 76 | |
| 20260502052858 | 44 | 314 | 0.0 | 2.6 | 0.00 | 0.00 | 0.00 | 73 | |
| 20260502052259 | 45 | 336 | 0.0 | 2.6 | 0.00 | 0.00 | 0.00 | 69 | |
| 20260502051658 | 45 | 0 | 0.9 | 2.6 | 0.00 | 0.00 | 0.00 | 75 | |
| 20260502051058 | 46 | 272 | 1.7 | 2.6 | 0.00 | 0.00 | 0.00 | 65 | |
| 20260502050458 | 47 | 283 | 0.0 | 2.6 | 0.00 | 0.00 | 0.00 | 65 | |
| 20260502045859 | 46 | 268 | 2.6 | 3.5 | 0.00 | 0.00 | 0.00 | 63 | |
| 20260502045332 | 45 | 275 | 1.7 | 2.6 | 0.00 | 0.00 | 0.00 | 69 | |
| 20260502044658 | 45 | 285 | 1.7 | 2.6 | 0.00 | 0.00 | 0.00 | 69 | |
| 20260502044115 | 45 | 302 | 0.9 | 2.6 | 0.00 | 0.00 | 0.00 | 66 | |
| 20260502043459 | 46 | 5 | 0.0 | 0.9 | 0.00 | 0.00 | 0.00 | 75 | |
| 20260502042859 | 47 | 276 | 0.0 | 1.7 | 0.00 | 0.00 | 0.00 | 63 | |
| 20260502042259 | 48 | 276 | 0.0 | 1.7 | 0.00 | 0.00 | 0.00 | 60 | |
| 20260502041715 | 49 | 276 | 0.9 | 2.6 | 0.00 | 0.00 | 0.00 | 57 | |
| 20260502041059 | 50 | 284 | 1.7 | 2.6 | 0.00 | 0.00 | 0.00 | 56 | |
| 20260502040458 | 51 | 276 | 0.0 | 0.0 | 0.00 | 0.00 | 0.00 | 55 | |
| 20260502035858 | 53 | 290 | 0.0 | 3.5 | 0.00 | 0.00 | 0.00 | 47 | |
| 20260502035315 | 54 | 298 | 1.7 | 4.3 | 0.00 | 0.00 | 0.00 | 45 | |
| 20260502034715 | 53 | 305 | 2.6 | 3.5 | 0.00 | 0.00 | 0.00 | 46 | |
| 20260502034115 | 52 | 304 | 1.7 | 2.6 | 0.00 | 0.00 | 0.00 | 47 | |
| 20260502033458 | 53 | 295 | 0.9 | 3.5 | 0.00 | 0.00 | 0.00 | 46 | |
| 20260502032858 | 54 | 286 | 1.7 | 3.5 | 0.00 | 0.00 | 0.00 | 44 | |
| 20260502032259 | 55 | 283 | 0.9 | 3.5 | 0.00 | 0.00 | 0.00 | 42 | |
| 20260502031659 | 55 | 282 | 1.7 | 4.3 | 0.00 | 0.00 | 0.00 | 40 | |
| 20260502031059 | 55 | 274 | 1.7 | 4.3 | 0.00 | 0.00 | 0.00 | 41 | |
| 20260502030459 | 56 | 281 | 2.6 | 4.3 | 0.00 | 0.00 | 0.00 | 39 | |
| 20260502025858 | 57 | 269 | 3.5 | 4.3 | 0.00 | 0.00 | 0.00 | 38 | |
| 20260502025258 | 57 | 276 | 3.5 | 4.3 | 0.00 | 0.00 | 0.00 | 37 | |
| 20260502024658 | 58 | 253 | 2.6 | 6.1 | 0.00 | 0.00 | 0.00 | 37 | |
| 20260502024059 | 58 | 275 | 2.6 | 6.1 | 0.00 | 0.00 | 0.00 | 36 | |
| 20260502023500 | 59 | 281 | 3.5 | 6.1 | 0.00 | 0.00 | 0.00 | 36 | |
| 20260502022858 | 59 | 253 | 3.5 | 6.1 | 0.00 | 0.00 | 0.00 | 34 | |
| 20260502022259 | 59 | 260 | 3.5 | 5.2 | 0.00 | 0.00 | 0.00 | 33 | |
| 20260502021658 | 59 | 263 | 3.5 | 4.3 | 0.00 | 0.00 | 0.00 | 33 | |
| 20260502021058 | 60 | 279 | 3.5 | 6.1 | 0.00 | 0.00 | 0.00 | 31 | |
| 20260502020459 | 61 | 266 | 3.5 | 7.0 | 0.00 | 0.00 | 0.00 | 31 | |
| 20260502015916 | 62 | 272 | 3.5 | 7.8 | 0.00 | 0.00 | 0.00 | 30 | |
| 20260502015259 | 62 | 250 | 3.5 | 7.0 | 0.00 | 0.00 | 0.00 | 29 | |
| 20260502014658 | 63 | 290 | 3.5 | 9.6 | 0.00 | 0.00 | 0.00 | 28 | |
| 20260502014059 | 63 | 276 | 4.3 | 9.6 | 0.00 | 0.00 | 0.00 | 27 | |
| 20260502013459 | 64 | 275 | 3.5 | 11.3 | 0.00 | 0.00 | 0.00 | 26 | |
| 20260502012915 | 65 | 270 | 4.3 | 9.6 | 0.00 | 0.00 | 0.00 | 26 | |
| 20260502012259 | 65 | 267 | 6.1 | 9.6 | 0.00 | 0.00 | 0.00 | 25 | |
| 20260502011658 | 65 | 239 | 4.3 | 9.6 | 0.00 | 0.00 | 0.00 | 26 | |
| 20260502011115 | 65 | 265 | 4.3 | 5.2 | 0.00 | 0.00 | 0.00 | 25 | |
| 20260502010515 | 66 | 237 | 2.6 | 12.2 | 0.00 | 0.00 | 0.00 | 24 | |
| 20260502005858 | 67 | 277 | 5.2 | 12.2 | 0.00 | 0.00 | 0.00 | 23 | |
| 20260502005258 | 66 | 263 | 3.5 | 9.6 | 0.00 | 0.00 | 0.00 | 24 | |
| 20260502004658 | 66 | 270 | 4.3 | 7.8 | 0.00 | 0.00 | 0.00 | 23 | |
| 20260502004059 | 68 | 293 | 1.7 | 10.4 | 0.00 | 0.00 | 0.00 | 23 | |
| 20260502003533 | 68 | 267 | 3.5 | 10.4 | 0.00 | 0.00 | 0.00 | 22 | |
| 20260502002859 | 69 | 250 | 4.3 | 8.7 | 0.00 | 0.00 | 0.00 | 22 | |
| 20260502002259 | 69 | 295 | 3.5 | 11.3 | 0.00 | 0.00 | 0.00 | 21 | |
| 20260502001659 | 70 | 294 | 6.1 | 11.3 | 0.00 | 0.00 | 0.00 | 21 | |
| 20260502001058 | 70 | 256 | 5.2 | 10.4 | 0.00 | 0.00 | 0.00 | 21 | |
| 20260502000458 | 70 | 326 | 3.5 | 11.3 | 0.00 | 0.00 | 0.00 | 22 | |
| 20260501235859 | 70 | 271 | 4.3 | 9.6 | 0.00 | 0.00 | 0.00 | 21 | |
| 20260501235315 | 70 | 232 | 1.7 | 12.2 | 0.00 | 0.00 | 0.00 | 20 | |
| 20260501234659 | 70 | 228 | 4.3 | 13.9 | 0.00 | 0.00 | 0.00 | 21 | |
| 20260501234116 | 71 | 227 | 7.0 | 11.3 | 0.00 | 0.00 | 0.00 | 20 | |
| 20260501233458 | 71 | 246 | 0.9 | 10.4 | 0.00 | 0.00 | 0.00 | 23 | |
| 20260501232858 | 71 | 302 | 4.3 | 15.6 | 0.00 | 0.00 | 0.00 | 21 | |
| 20260501232258 | 70 | 340 | 5.2 | 14.8 | 0.00 | 0.00 | 0.00 | 22 | |
| 20260501231658 | 71 | 334 | 4.3 | 16.5 | 0.00 | 0.00 | 0.00 | 20 | |
| 20260501231058 | 71 | 299 | 6.1 | 17.4 | 0.00 | 0.00 | 0.00 | 21 | |
| 20260501230517 | 71 | 239 | 5.2 | 15.6 | 0.00 | 0.00 | 0.00 | 22 | |
| 20260501225858 | 71 | 282 | 7.0 | 12.2 | 0.00 | 0.00 | 0.00 | 21 | |
| 20260501225258 | 72 | 262 | 3.5 | 13.9 | 0.00 | 0.00 | 0.00 | 21 | |
| 20260501224659 | 71 | 262 | 2.6 | 12.2 | 0.00 | 0.00 | 0.00 | 21 | |
| 20260501224116 | 71 | 279 | 2.6 | 16.5 | 0.00 | 0.00 | 0.00 | 22 | |
| 20260501223458 | 72 | 242 | 6.1 | 17.4 | 0.00 | 0.00 | 0.00 | 21 | |
| 20260501222859 | 71 | 227 | 4.3 | 15.6 | 0.00 | 0.00 | 0.00 | 21 | |
| 20260501222315 | 72 | 243 | 3.5 | 15.6 | 0.00 | 0.00 | 0.00 | 22 | |
| 20260501221658 | 71 | 287 | 6.1 | 13.9 | 0.00 | 0.00 | 0.00 | 22 | |
| 20260501221058 | 71 | 207 | 4.3 | 17.4 | 0.00 | 0.00 | 0.00 | 22 | |
| 20260501220458 | 71 | 236 | 1.7 | 14.8 | 0.00 | 0.00 | 0.00 | 23 | |
| 20260501215258 | 71 | 293 | 4.3 | 15.6 | 0.00 | 0.00 | 0.00 | 21 | |
| 20260501214700 | 72 | 263 | 6.1 | 15.6 | 0.00 | 0.00 | 0.00 | 23 | |
| 20260501214059 | 72 | 266 | 4.3 | 9.6 | 0.00 | 0.00 | 0.00 | 21 | |
| 20260501213515 | 71 | 217 | 2.6 | 13.0 | 0.00 | 0.00 | 0.00 | 22 | |
| 20260501212858 | 71 | 238 | 6.1 | 15.6 | 0.00 | 0.00 | 0.00 | 22 | |
| 20260501212315 | 71 | 271 | 5.2 | 15.6 | 0.00 | 0.00 | 0.00 | 23 | |
| 20260501211659 | 71 | 261 | 7.0 | 11.3 | 0.00 | 0.00 | 0.00 | 23 | |
| 20260501211128 | 71 | 230 | 4.3 | 15.6 | 0.00 | 0.00 | 0.00 | 22 | |
| 20260501210458 | 72 | 269 | 4.3 | 12.2 | 0.00 | 0.00 | 0.00 | 23 | |
| 20260501205859 | 70 | 261 | 5.2 | 14.8 | 0.00 | 0.00 | 0.00 | 21 | |
| 20260501205258 | 70 | 53 | 2.6 | 14.8 | 0.00 | 0.00 | 0.00 | 24 | |
| 20260501204715 | 71 | 271 | 7.0 | 15.6 | 0.00 | 0.00 | 0.00 | 21 | |
| 20260501204115 | 72 | 259 | 7.0 | 15.6 | 0.00 | 0.00 | 0.00 | 21 | |
| 20260501203500 | 70 | 239 | 6.1 | 15.6 | 0.00 | 0.00 | 0.00 | 21 | |
| 20260501202858 | 71 | 269 | 7.0 | 16.5 | 0.00 | 0.00 | 0.00 | 22 | |
| 20260501202259 | 71 | 273 | 4.3 | 16.5 | 0.00 | 0.00 | 0.00 | 22 | |
| 20260501201659 | 70 | 238 | 2.6 | 17.4 | 0.00 | 0.00 | 0.00 | 22 | |
| 20260501201058 | 70 | 233 | 6.1 | 14.8 | 0.00 | 0.00 | 0.00 | 23 | |
| 20260501200458 | 69 | 281 | 4.3 | 17.4 | 0.00 | 0.00 | 0.00 | 23 | |
| 20260501195858 | 69 | 280 | 4.3 | 16.5 | 0.00 | 0.00 | 0.00 | 21 | |
| 20260501195259 | 71 | 268 | 7.0 | 16.5 | 0.00 | 0.00 | 0.00 | 20 | |
| 20260501194658 | 69 | 244 | 7.0 | 20.0 | 0.00 | 0.00 | 0.00 | 22 | |
| 20260501194116 | 70 | 267 | 7.8 | 18.2 | 0.00 | 0.00 | 0.00 | 20 | |
| 20260501193459 | 69 | 260 | 7.0 | 19.1 | 0.00 | 0.00 | 0.00 | 22 | |
| 20260501192859 | 69 | 263 | 7.0 | 15.6 | 0.00 | 0.00 | 0.00 | 20 | |
| 20260501192259 | 69 | 243 | 7.8 | 18.2 | 0.00 | 0.00 | 0.00 | 21 | |
| 20260501191658 | 68 | 262 | 2.6 | 13.9 | 0.00 | 0.00 | 0.00 | 22 | |
| 20260501191059 | 68 | 219 | 6.1 | 16.5 | 0.00 | 0.00 | 0.00 | 21 | |
| 20260501190458 | 68 | 279 | 7.0 | 17.4 | 0.00 | 0.00 | 0.00 | 22 | |
| 20260501185859 | 68 | 313 | 7.0 | 17.4 | 0.00 | 0.00 | 0.00 | 20 | |
| 20260501185316 | 68 | 262 | 7.0 | 14.8 | 0.00 | 0.00 | 0.00 | 23 | |
| 20260501184658 | 67 | 210 | 4.3 | 18.2 | 0.00 | 0.00 | 0.00 | 22 | |
| 20260501184059 | 68 | 281 | 7.8 | 16.5 | 0.00 | 0.00 | 0.00 | 20 | |
| 20260501183516 | 68 | 279 | 6.1 | 15.6 | 0.00 | 0.00 | 0.00 | 22 | |
| 20260501182859 | 67 | 186 | 1.7 | 18.2 | 0.00 | 0.00 | 0.00 | 23 | |
| 20260501182259 | 68 | 276 | 6.1 | 20.0 | 0.00 | 0.00 | 0.00 | 20 | |
| 20260501181659 | 66 | 287 | 7.8 | 15.6 | 0.00 | 0.00 | 0.00 | 21 | |
| 20260501181115 | 67 | 248 | 7.8 | 15.6 | 0.00 | 0.00 | 0.00 | 24 | |
| 20260501180516 | 66 | 285 | 7.8 | 19.1 | 0.00 | 0.00 | 0.00 | 22 | |
| 20260501175859 | 66 | 269 | 6.1 | 15.6 | 0.00 | 0.00 | 0.00 | 25 | |
| 20260501175259 | 66 | 230 | 3.5 | 16.5 | 0.00 | 0.00 | 0.00 | 28 | |
| 20260501174659 | 66 | 257 | 6.1 | 16.5 | 0.00 | 0.00 | 0.00 | 26 | |
| 20260501174058 | 66 | 263 | 7.0 | 14.8 | 0.00 | 0.00 | 0.00 | 25 | |
| 20260501173515 | 66 | 255 | 2.6 | 14.8 | 0.00 | 0.00 | 0.00 | 25 | |
| 20260501172932 | 65 | 263 | 3.5 | 12.2 | 0.00 | 0.00 | 0.00 | 26 | |
| 20260501172259 | 65 | 265 | 6.1 | 13.9 | 0.00 | 0.00 | 0.00 | 27 | |
| 20260501171659 | 64 | 195 | 3.5 | 15.6 | 0.00 | 0.00 | 0.00 | 28 | |
| 20260501171059 | 64 | 196 | 5.2 | 15.6 | 0.00 | 0.00 | 0.00 | 26 | |
| 20260501170458 | 65 | 266 | 4.3 | 11.3 | 0.00 | 0.00 | 0.00 | 27 | |
| 20260501165915 | 63 | 258 | 7.0 | 17.4 | 0.00 | 0.00 | 0.00 | 28 | |
| 20260501165258 | 63 | 244 | 7.8 | 18.2 | 0.00 | 0.00 | 0.00 | 27 | |
| 20260501164716 | 63 | 279 | 7.0 | 16.5 | 0.00 | 0.00 | 0.00 | 28 | |
| 20260501164058 | 62 | 250 | 9.6 | 17.4 | 0.00 | 0.00 | 0.00 | 28 | |
| 20260501163458 | 62 | 235 | 7.8 | 20.0 | 0.00 | 0.00 | 0.00 | 29 | |
| 20260501162915 | 62 | 265 | 4.3 | 18.2 | 0.00 | 0.00 | 0.00 | 30 | |
| 20260501162259 | 61 | 262 | 7.8 | 22.6 | 0.00 | 0.00 | 0.00 | 29 | |
| 20260501161658 | 62 | 271 | 13.0 | 18.2 | 0.00 | 0.00 | 0.00 | 28 | |
| 20260501161116 | 61 | 244 | 6.1 | 20.0 | 0.00 | 0.00 | 0.00 | 31 | |
| 20260501160459 | 61 | 270 | 7.8 | 13.9 | 0.00 | 0.00 | 0.00 | 33 | |
| 20260501155858 | 61 | 241 | 3.5 | 13.0 | 0.00 | 0.00 | 0.00 | 34 | |
| 20260501155258 | 60 | 199 | 4.3 | 14.8 | 0.00 | 0.00 | 0.00 | 35 | |
| 20260501154658 | 61 | 231 | 4.3 | 13.0 | 0.00 | 0.00 | 0.00 | 34 | |
| 20260501154058 | 60 | 202 | 4.3 | 14.8 | 0.00 | 0.00 | 0.00 | 37 | |
| 20260501153515 | 60 | 236 | 6.1 | 16.5 | 0.00 | 0.00 | 0.00 | 36 | |
| 20260501152859 | 59 | 207 | 5.2 | 13.9 | 0.00 | 0.00 | 0.00 | 37 | |
| 20260501152316 | 59 | 224 | 4.3 | 13.9 | 0.00 | 0.00 | 0.00 | 39 | |
| 20260501151659 | 58 | 265 | 5.2 | 16.5 | 0.00 | 0.00 | 0.00 | 42 | |
| 20260501151058 | 58 | 254 | 4.3 | 17.4 | 0.00 | 0.00 | 0.00 | 45 | |
| 20260501150458 | 58 | 243 | 6.1 | 15.6 | 0.00 | 0.00 | 0.00 | 44 | |
| 20260501145858 | 57 | 250 | 6.1 | 19.1 | 0.00 | 0.00 | 0.00 | 45 | |
| 20260501145258 | 57 | 230 | 5.2 | 13.9 | 0.00 | 0.00 | 0.00 | 48 | |
| 20260501144658 | 58 | 203 | 3.5 | 9.6 | 0.00 | 0.00 | 0.00 | 50 | |
| 20260501144115 | 57 | 194 | 1.7 | 8.7 | 0.00 | 0.00 | 0.00 | 52 | |
| 20260501143458 | 56 | 251 | 3.5 | 9.6 | 0.00 | 0.00 | 0.00 | 52 | |
| 20260501142859 | 56 | 166 | 2.6 | 7.8 | 0.00 | 0.00 | 0.00 | 52 | |
| 20260501142315 | 55 | 246 | 1.7 | 10.4 | 0.00 | 0.00 | 0.00 | 57 |